createdAt,value
2023-03-17T00:04:49.420Z,9.50
2023-03-17T00:09:51.170Z,9.50
2023-03-17T00:14:52.805Z,9.33
2023-03-17T00:19:54.722Z,9.27
2023-03-17T00:24:56.742Z,9.16
2023-03-17T00:29:58.356Z,9.16
2023-03-17T00:35:00.312Z,9.07
2023-03-17T00:40:02.260Z,9.05
2023-03-17T00:45:04.719Z,8.99
2023-03-17T00:50:10.153Z,8.95
2023-03-17T00:55:12.744Z,8.86
2023-03-17T01:00:34.698Z,8.59
2023-03-17T01:05:36.247Z,8.79
2023-03-17T01:10:38.111Z,8.66
2023-03-17T01:15:42.679Z,8.78
2023-03-17T01:20:44.560Z,8.78
2023-03-17T01:25:46.626Z,8.86
2023-03-17T01:30:48.621Z,8.77
2023-03-17T01:35:50.880Z,8.64
2023-03-17T01:40:52.718Z,8.66
2023-03-17T01:46:22.133Z,8.57
2023-03-17T01:51:35.841Z,8.69
2023-03-17T01:56:40.852Z,8.69
2023-03-17T02:01:47.392Z,8.78
2023-03-17T02:06:58.050Z,8.74
2023-03-17T02:12:02.357Z,8.70
2023-03-17T02:17:04.139Z,8.66
2023-03-17T02:22:05.982Z,8.71
2023-03-17T02:27:17.902Z,8.67
2023-03-17T02:32:20.802Z,8.66
2023-03-17T02:37:22.523Z,8.60
2023-03-17T02:42:24.570Z,8.54
2023-03-17T02:47:26.063Z,8.62
2023-03-17T02:52:27.628Z,8.53
2023-03-17T02:57:29.361Z,8.43
2023-03-17T03:02:30.913Z,8.22
2023-03-17T03:07:32.989Z,8.34
2023-03-17T03:12:34.822Z,8.33
2023-03-17T03:17:36.539Z,8.34
2023-03-17T03:22:38.146Z,8.31
2023-03-17T03:27:40.082Z,8.26
2023-03-17T03:32:41.741Z,8.17
2023-03-17T03:37:43.399Z,8.10
2023-03-17T03:42:45.088Z,8.10
2023-03-17T03:47:46.861Z,8.15
2023-03-17T03:52:48.849Z,8.16
2023-03-17T03:57:50.840Z,8.19
2023-03-17T04:02:52.953Z,8.22
2023-03-17T04:07:55.312Z,8.31
2023-03-17T04:12:57.129Z,8.19
2023-03-17T04:17:58.986Z,8.19
2023-03-17T04:23:00.814Z,8.12
2023-03-17T04:28:02.427Z,7.91
2023-03-17T04:33:03.983Z,7.92
2023-03-17T04:38:05.579Z,7.81
2023-03-17T04:43:07.272Z,7.82
2023-03-17T04:48:08.788Z,7.85
2023-03-17T04:53:10.294Z,7.79
2023-03-17T04:58:21.081Z,7.81
2023-03-17T05:03:30.646Z,7.78
2023-03-17T05:08:32.177Z,7.87
2023-03-17T05:13:34.089Z,7.88
2023-03-17T05:18:43.765Z,7.96
2023-03-17T05:23:45.573Z,7.95
2023-03-17T05:28:47.604Z,7.89
2023-03-17T05:33:49.448Z,7.99
2023-03-17T05:38:51.460Z,7.82
2023-03-17T05:43:53.329Z,7.86
2023-03-17T05:48:55.157Z,7.94
2023-03-17T05:53:56.717Z,7.90
2023-03-17T05:58:58.355Z,7.91
2023-03-17T06:03:59.857Z,8.03
2023-03-17T06:09:01.766Z,8.08
2023-03-17T06:14:03.534Z,8.19
2023-03-17T06:19:05.039Z,8.37
2023-03-17T06:24:07.571Z,8.47
2023-03-17T06:29:09.406Z,8.62
2023-03-17T06:34:10.962Z,8.77
2023-03-17T06:39:13.836Z,8.72
2023-03-17T06:44:15.382Z,8.96
2023-03-17T06:49:16.988Z,9.19
2023-03-17T06:54:18.638Z,9.44
2023-03-17T06:59:21.942Z,9.61
2023-03-17T07:04:23.579Z,9.61
2023-03-17T07:09:25.464Z,9.67
2023-03-17T07:14:27.382Z,9.84
2023-03-17T07:19:29.790Z,9.97
2023-03-17T07:24:32.015Z,10.09
2023-03-17T07:29:53.860Z,10.24
2023-03-17T07:34:55.697Z,10.36
2023-03-17T07:39:57.370Z,10.54
2023-03-17T07:44:58.971Z,10.89
2023-03-17T07:50:00.492Z,11.26
2023-03-17T07:55:02.037Z,11.22
2023-03-17T08:00:05.506Z,11.60
2023-03-17T08:05:15.397Z,11.69
2023-03-17T08:10:17.102Z,12.04
2023-03-17T08:15:19.265Z,12.19
2023-03-17T08:20:21.184Z,12.40
2023-03-17T08:25:22.774Z,12.75
2023-03-17T08:30:24.405Z,13.15
2023-03-17T08:35:25.995Z,13.36
2023-03-17T08:40:27.628Z,13.74
2023-03-17T08:45:29.651Z,14.40
2023-03-17T08:50:31.912Z,14.47
2023-03-17T08:55:33.710Z,14.98
2023-03-17T09:00:35.231Z,15.64
2023-03-17T09:05:38.469Z,16.00
2023-03-17T09:10:42.559Z,15.98
2023-03-17T09:15:46.121Z,16.37
2023-03-17T09:20:47.864Z,16.04
2023-03-17T09:25:49.566Z,16.52
2023-03-17T09:30:51.427Z,16.68
2023-03-17T09:35:53.411Z,16.66
2023-03-17T09:41:13.883Z,16.72
2023-03-17T09:46:39.637Z,16.84
2023-03-17T09:51:44.874Z,16.63
2023-03-17T09:56:55.000Z,16.55
2023-03-17T10:01:57.167Z,16.78
2023-03-17T10:07:04.974Z,17.29
2023-03-17T10:12:14.378Z,17.32
2023-03-17T10:17:21.750Z,17.43
2023-03-17T10:22:41.629Z,17.55
2023-03-17T10:27:48.695Z,17.51
2023-03-17T10:32:52.570Z,17.17
2023-03-17T10:38:07.938Z,17.90
2023-03-17T10:43:20.011Z,17.30
2023-03-17T10:48:21.652Z,17.42
2023-03-17T10:53:25.176Z,17.20
2023-03-17T10:58:38.103Z,17.05
2023-03-17T11:03:40.134Z,17.23
2023-03-17T11:08:55.027Z,17.70
2023-03-17T11:14:14.919Z,18.25
2023-03-17T11:19:17.840Z,18.81
2023-03-17T11:24:28.300Z,18.26
2023-03-17T11:29:35.628Z,18.26
2023-03-17T11:34:52.398Z,18.74
2023-03-17T11:40:15.114Z,18.49
2023-03-17T11:45:23.650Z,18.80
2023-03-17T11:50:54.698Z,18.97
2023-03-17T11:56:18.271Z,19.47
2023-03-17T12:01:26.605Z,19.74
2023-03-17T12:06:32.442Z,19.18
2023-03-17T12:11:38.631Z,19.24
2023-03-17T12:16:47.238Z,19.35
2023-03-17T12:22:01.377Z,19.13
2023-03-17T12:27:05.878Z,19.25
2023-03-17T12:32:16.233Z,19.54
2023-03-17T12:37:19.493Z,19.04
2023-03-17T12:42:50.927Z,19.52
2023-03-17T12:48:13.501Z,19.13
2023-03-17T12:53:20.927Z,18.93
2023-03-17T12:58:45.932Z,18.79
2023-03-17T13:03:58.461Z,18.49
2023-03-17T13:09:33.277Z,19.25
2023-03-17T13:14:44.905Z,19.36
2023-03-17T13:20:07.928Z,19.35
2023-03-17T13:25:38.367Z,19.60
2023-03-17T13:30:40.262Z,19.39
2023-03-17T13:36:06.078Z,19.54
2023-03-17T13:41:13.255Z,19.22
2023-03-17T13:46:26.740Z,18.82
2023-03-17T13:51:33.477Z,18.84
2023-03-17T13:56:41.031Z,18.80
2023-03-17T14:02:23.075Z,18.84
2023-03-17T14:07:31.867Z,18.75
2023-03-17T14:12:44.017Z,18.67
2023-03-17T14:18:15.341Z,18.33
2023-03-17T14:23:18.111Z,18.34
2023-03-17T14:28:26.540Z,18.09
2023-03-17T14:33:30.596Z,17.73
2023-03-17T14:38:35.728Z,17.60
2023-03-17T14:43:37.293Z,17.67
2023-03-17T14:48:41.769Z,17.45
2023-03-17T14:53:44.196Z,17.35
2023-03-17T14:58:48.821Z,17.31
2023-03-17T15:03:56.701Z,17.45
2023-03-17T15:08:59.552Z,17.32
2023-03-17T15:14:30.105Z,17.14
2023-03-17T15:19:43.382Z,16.85
2023-03-17T15:24:45.055Z,16.82
2023-03-17T15:29:46.571Z,16.70
2023-03-17T15:34:49.904Z,16.58
2023-03-17T15:39:52.152Z,16.38
2023-03-17T15:44:54.323Z,16.43
2023-03-17T15:49:59.427Z,16.39
2023-03-17T15:55:00.945Z,16.39
2023-03-17T16:00:02.653Z,16.18
2023-03-17T16:05:19.452Z,16.44
2023-03-17T16:10:33.382Z,16.54
2023-03-17T16:15:39.251Z,16.47
2023-03-17T16:20:43.464Z,16.59
2023-03-17T16:25:46.250Z,16.38
2023-03-17T16:30:49.906Z,16.00
2023-03-17T16:35:52.810Z,15.82
2023-03-17T16:40:58.589Z,15.56
2023-03-17T16:46:02.369Z,15.58
2023-03-17T16:51:05.158Z,15.55
2023-03-17T16:56:15.519Z,15.59
2023-03-17T17:01:21.503Z,15.57
2023-03-17T17:06:24.270Z,15.06
2023-03-17T17:11:25.887Z,14.78
2023-03-17T17:16:33.492Z,14.89
2023-03-17T17:21:35.203Z,14.68
2023-03-17T17:26:36.731Z,14.20
2023-03-17T17:31:38.681Z,13.82
2023-03-17T17:36:40.718Z,13.17
2023-03-17T17:41:42.372Z,13.21
2023-03-17T17:46:43.982Z,13.14
2023-03-17T17:51:45.759Z,12.99
2023-03-17T17:56:47.727Z,13.44
2023-03-17T18:01:49.472Z,13.58
2023-03-17T18:06:51.820Z,13.59
2023-03-17T18:11:53.717Z,13.64
2023-03-17T18:16:55.382Z,13.54
2023-03-17T18:21:57.042Z,13.44
2023-03-17T18:26:58.563Z,13.33
2023-03-17T18:32:00.254Z,12.88
2023-03-17T18:37:02.106Z,12.57
2023-03-17T18:42:03.791Z,12.47
2023-03-17T18:47:05.720Z,12.57
2023-03-17T18:52:07.267Z,12.63
2023-03-17T18:57:08.851Z,12.79
2023-03-17T19:02:10.370Z,13.02
2023-03-17T19:07:13.230Z,13.26
2023-03-17T19:12:14.834Z,13.26
2023-03-17T19:17:16.404Z,13.50
2023-03-17T19:22:18.251Z,13.50
2023-03-17T19:27:19.820Z,13.48
2023-03-17T19:32:21.354Z,13.58
2023-03-17T19:37:22.865Z,13.48
2023-03-17T19:42:24.512Z,13.49
2023-03-17T19:47:26.090Z,13.32
2023-03-17T19:52:27.652Z,13.22
2023-03-17T19:57:29.306Z,13.18
2023-03-17T20:02:30.862Z,12.91
2023-03-17T20:07:32.654Z,12.57
2023-03-17T20:12:34.855Z,12.56
2023-03-17T20:17:36.535Z,12.58
2023-03-17T20:22:38.467Z,12.50
2023-03-17T20:27:40.231Z,12.64
2023-03-17T20:32:41.864Z,12.68
2023-03-17T20:37:43.459Z,12.30
2023-03-17T20:42:45.105Z,11.95
2023-03-17T20:47:46.986Z,11.82
2023-03-17T20:52:49.684Z,11.39
2023-03-17T20:57:51.183Z,11.30
2023-03-17T21:02:52.766Z,11.20
2023-03-17T21:07:54.404Z,11.24
2023-03-17T21:12:55.895Z,11.25
2023-03-17T21:17:57.429Z,11.10
2023-03-17T21:22:59.043Z,11.11
2023-03-17T21:28:01.731Z,11.11
2023-03-17T21:33:04.692Z,11.22
2023-03-17T21:38:07.960Z,11.22
2023-03-17T21:43:10.059Z,11.23
2023-03-17T21:48:11.641Z,11.30
2023-03-17T21:53:13.874Z,11.28
2023-03-17T21:58:16.696Z,11.36
2023-03-17T22:03:19.694Z,11.38
2023-03-17T22:08:21.730Z,11.28
2023-03-17T22:13:24.899Z,11.18
2023-03-17T22:18:26.445Z,11.19
2023-03-17T22:23:27.990Z,11.17
2023-03-17T22:28:29.621Z,11.12
2023-03-17T22:33:31.252Z,11.16
2023-03-17T22:38:32.822Z,11.16
2023-03-17T22:43:35.500Z,11.13
2023-03-17T22:48:37.315Z,11.11
2023-03-17T22:53:40.770Z,11.13
2023-03-17T22:58:44.441Z,11.14
2023-03-17T23:03:47.383Z,11.18
2023-03-17T23:08:51.541Z,11.19
2023-03-17T23:13:54.791Z,11.23
2023-03-17T23:18:56.927Z,11.26
2023-03-17T23:24:00.184Z,11.22
2023-03-17T23:29:03.340Z,11.28
2023-03-17T23:34:07.062Z,11.22
2023-03-17T23:39:09.770Z,11.18
2023-03-17T23:44:12.771Z,11.21
2023-03-17T23:49:14.405Z,11.23
2023-03-17T23:54:16.074Z,11.24
2023-03-17T23:59:17.948Z,11.17
